sensor_id;sensor_type;location;lat;lon;timestamp;temperature;humidity
5218;DHT22;26539;51.064;6.346;2023-03-01T00:00:32;1.90;99.90
5218;DHT22;26539;51.064;6.346;2023-03-01T00:03:20;1.90;99.90
5218;DHT22;26539;51.064;6.346;2023-03-01T00:05:49;1.90;99.90
5218;DHT22;26539;51.064;6.346;2023-03-01T00:08:14;1.80;99.90
5218;DHT22;26539;51.064;6.346;2023-03-01T00:10:45;1.80;99.90
5218;DHT22;26539;51.064;6.346;2023-03-01T00:19:55;1.80;99.90
5218;DHT22;26539;51.064;6.346;2023-03-01T00:26:04;1.70;99.90
5218;DHT22;26539;51.064;6.346;2023-03-01T00:31:35;1.70;99.90
5218;DHT22;26539;51.064;6.346;2023-03-01T00:36:53;1.70;99.90
5218;DHT22;26539;51.064;6.346;2023-03-01T00:39:28;1.60;99.90
5218;DHT22;26539;51.064;6.346;2023-03-01T00:42:17;1.60;99.90
5218;DHT22;26539;51.064;6.346;2023-03-01T00:44:47;1.60;99.90
5218;DHT22;26539;51.064;6.346;2023-03-01T00:50:25;1.60;99.90
5218;DHT22;26539;51.064;6.346;2023-03-01T00:53:10;1.60;99.90
5218;DHT22;26539;51.064;6.346;2023-03-01T00:55:38;1.60;99.90
5218;DHT22;26539;51.064;6.346;2023-03-01T00:58:07;1.60;99.90
5218;DHT22;26539;51.064;6.346;2023-03-01T01:00:45;1.60;99.90
5218;DHT22;26539;51.064;6.346;2023-03-01T01:03:13;1.60;99.90
5218;DHT22;26539;51.064;6.346;2023-03-01T01:06:26;1.50;99.90
5218;DHT22;26539;51.064;6.346;2023-03-01T01:09:17;1.50;99.90
5218;DHT22;26539;51.064;6.346;2023-03-01T01:12:25;1.50;99.90
5218;DHT22;26539;51.064;6.346;2023-03-01T01:15:03;1.50;99.90
5218;DHT22;26539;51.064;6.346;2023-03-01T01:17:39;1.40;99.90
5218;DHT22;26539;51.064;6.346;2023-03-01T01:20:11;1.40;99.90
5218;DHT22;26539;51.064;6.346;2023-03-01T01:23:25;1.30;99.90
5218;DHT22;26539;51.064;6.346;2023-03-01T01:29:24;1.30;99.90
5218;DHT22;26539;51.064;6.346;2023-03-01T01:38:35;1.20;99.90
5218;DHT22;26539;51.064;6.346;2023-03-01T01:41:14;1.20;99.90
5218;DHT22;26539;51.064;6.346;2023-03-01T01:43:47;1.10;99.90
5218;DHT22;26539;51.064;6.346;2023-03-01T01:50:01;1.10;99.90
5218;DHT22;26539;51.064;6.346;2023-03-01T01:52:37;1.00;99.90
5218;DHT22;26539;51.064;6.346;2023-03-01T01:58:26;1.00;99.90
5218;DHT22;26539;51.064;6.346;2023-03-01T02:00:58;0.90;99.90
5218;DHT22;26539;51.064;6.346;2023-03-01T02:03:31;0.90;99.90
5218;DHT22;26539;51.064;6.346;2023-03-01T02:08:46;0.90;99.90
5218;DHT22;26539;51.064;6.346;2023-03-01T02:11:31;0.90;99.90
5218;DHT22;26539;51.064;6.346;2023-03-01T02:14:25;0.80;99.90
5218;DHT22;26539;51.064;6.346;2023-03-01T02:17:09;0.80;99.90
5218;DHT22;26539;51.064;6.346;2023-03-01T02:20:32;0.80;99.90
5218;DHT22;26539;51.064;6.346;2023-03-01T02:23:22;0.80;99.90
5218;DHT22;26539;51.064;6.346;2023-03-01T02:29:15;0.80;99.90
5218;DHT22;26539;51.064;6.346;2023-03-01T02:34:59;0.70;99.90
5218;DHT22;26539;51.064;6.346;2023-03-01T02:37:46;0.70;99.90
5218;DHT22;26539;51.064;6.346;2023-03-01T02:40:19;0.70;99.90
5218;DHT22;26539;51.064;6.346;2023-03-01T02:43:08;0.70;99.90
5218;DHT22;26539;51.064;6.346;2023-03-01T02:45:57;0.60;99.90
5218;DHT22;26539;51.064;6.346;2023-03-01T02:49:00;0.60;99.90
5218;DHT22;26539;51.064;6.346;2023-03-01T02:54:39;0.50;99.90
5218;DHT22;26539;51.064;6.346;2023-03-01T02:57:27;0.50;99.90
5218;DHT22;26539;51.064;6.346;2023-03-01T03:03:03;0.50;99.90
5218;DHT22;26539;51.064;6.346;2023-03-01T03:05:39;0.50;99.90
5218;DHT22;26539;51.064;6.346;2023-03-01T03:08:15;0.50;99.90
5218;DHT22;26539;51.064;6.346;2023-03-01T03:10:51;0.40;99.90
5218;DHT22;26539;51.064;6.346;2023-03-01T03:13:22;0.40;99.90
5218;DHT22;26539;51.064;6.346;2023-03-01T03:19:01;0.40;99.90
5218;DHT22;26539;51.064;6.346;2023-03-01T03:21:40;0.30;99.90
5218;DHT22;26539;51.064;6.346;2023-03-01T03:27:09;0.20;99.90
5218;DHT22;26539;51.064;6.346;2023-03-01T03:32:31;0.20;99.90
5218;DHT22;26539;51.064;6.346;2023-03-01T03:35:27;0.20;99.90
5218;DHT22;26539;51.064;6.346;2023-03-01T03:38:22;0.20;99.90
5218;DHT22;26539;51.064;6.346;2023-03-01T03:44:23;0.20;99.90
5218;DHT22;26539;51.064;6.346;2023-03-01T03:50:34;0.10;99.90
5218;DHT22;26539;51.064;6.346;2023-03-01T03:53:23;0.10;99.90
5218;DHT22;26539;51.064;6.346;2023-03-01T03:56:10;0.00;99.90
5218;DHT22;26539;51.064;6.346;2023-03-01T04:02:20;0.00;99.90
5218;DHT22;26539;51.064;6.346;2023-03-01T04:04:50;-0.10;99.90
5218;DHT22;26539;51.064;6.346;2023-03-01T04:07:54;-0.10;99.90
5218;DHT22;26539;51.064;6.346;2023-03-01T04:16:28;-0.20;99.90
5218;DHT22;26539;51.064;6.346;2023-03-01T04:19:03;-0.20;99.90
5218;DHT22;26539;51.064;6.346;2023-03-01T04:21:34;-0.20;99.90
5218;DHT22;26539;51.064;6.346;2023-03-01T04:24:30;-0.20;99.90
5218;DHT22;26539;51.064;6.346;2023-03-01T04:27:05;-0.20;99.90
5218;DHT22;26539;51.064;6.346;2023-03-01T04:30:00;-0.20;99.90
5218;DHT22;26539;51.064;6.346;2023-03-01T04:32:53;-0.20;99.90
5218;DHT22;26539;51.064;6.346;2023-03-01T04:35:39;-0.30;99.90
5218;DHT22;26539;51.064;6.346;2023-03-01T04:38:28;-0.30;99.90
5218;DHT22;26539;51.064;6.346;2023-03-01T04:44:18;-0.40;99.90
5218;DHT22;26539;51.064;6.346;2023-03-01T04:46:48;-0.40;99.90
5218;DHT22;26539;51.064;6.346;2023-03-01T04:52:54;-0.40;99.90
5218;DHT22;26539;51.064;6.346;2023-03-01T04:55:34;-0.50;99.90
5218;DHT22;26539;51.064;6.346;2023-03-01T04:58:14;-0.60;99.90
5218;DHT22;26539;51.064;6.346;2023-03-01T05:01:14;-0.70;99.90
5218;DHT22;26539;51.064;6.346;2023-03-01T05:03:55;-0.70;99.90
5218;DHT22;26539;51.064;6.346;2023-03-01T05:06:28;-0.70;1.00
5218;DHT22;26539;51.064;6.346;2023-03-01T05:08:56;-0.70;1.00
5218;DHT22;26539;51.064;6.346;2023-03-01T05:11:32;-0.70;1.00
5218;DHT22;26539;51.064;6.346;2023-03-01T05:14:02;-0.70;1.00
5218;DHT22;26539;51.064;6.346;2023-03-01T05:16:32;-0.70;1.00
5218;DHT22;26539;51.064;6.346;2023-03-01T05:19:04;-0.70;1.00
5218;DHT22;26539;51.064;6.346;2023-03-01T05:21:50;-0.70;1.00
5218;DHT22;26539;51.064;6.346;2023-03-01T05:24:37;-0.70;1.00
5218;DHT22;26539;51.064;6.346;2023-03-01T05:27:13;-0.70;1.00
5218;DHT22;26539;51.064;6.346;2023-03-01T05:30:01;-0.70;1.00
5218;DHT22;26539;51.064;6.346;2023-03-01T05:36:04;-0.70;1.00
5218;DHT22;26539;51.064;6.346;2023-03-01T05:38:28;-0.80;1.00
5218;DHT22;26539;51.064;6.346;2023-03-01T05:41:02;-0.80;1.00
5218;DHT22;26539;51.064;6.346;2023-03-01T05:43:33;-0.80;1.00
5218;DHT22;26539;51.064;6.346;2023-03-01T05:46:07;-0.70;1.00
5218;DHT22;26539;51.064;6.346;2023-03-01T05:48:45;-0.70;1.00
5218;DHT22;26539;51.064;6.346;2023-03-01T05:51:34;-0.70;1.00
5218;DHT22;26539;51.064;6.346;2023-03-01T05:54:20;-0.80;1.00
5218;DHT22;26539;51.064;6.346;2023-03-01T05:57:03;-0.80;1.00
5218;DHT22;26539;51.064;6.346;2023-03-01T05:59:39;-0.90;1.00
5218;DHT22;26539;51.064;6.346;2023-03-01T06:02:19;-0.90;1.00
5218;DHT22;26539;51.064;6.346;2023-03-01T06:04:50;-0.90;1.00
5218;DHT22;26539;51.064;6.346;2023-03-01T06:07:37;-1.00;1.00
5218;DHT22;26539;51.064;6.346;2023-03-01T06:10:06;-1.00;1.00
5218;DHT22;26539;51.064;6.346;2023-03-01T06:12:57;-1.00;1.00
5218;DHT22;26539;51.064;6.346;2023-03-01T06:18:41;-0.90;1.00
5218;DHT22;26539;51.064;6.346;2023-03-01T06:21:35;-0.90;1.00
5218;DHT22;26539;51.064;6.346;2023-03-01T06:24:10;-0.90;1.00
5218;DHT22;26539;51.064;6.346;2023-03-01T06:26:39;-0.90;1.00
5218;DHT22;26539;51.064;6.346;2023-03-01T06:29:07;-0.80;1.00
5218;DHT22;26539;51.064;6.346;2023-03-01T06:31:43;-0.80;1.00
5218;DHT22;26539;51.064;6.346;2023-03-01T06:34:11;-0.70;1.00
5218;DHT22;26539;51.064;6.346;2023-03-01T06:36:40;-0.60;1.00
5218;DHT22;26539;51.064;6.346;2023-03-01T06:39:14;-0.60;1.00
5218;DHT22;26539;51.064;6.346;2023-03-01T06:41:52;-0.50;1.00
5218;DHT22;26539;51.064;6.346;2023-03-01T06:44:18;-0.40;1.00
5218;DHT22;26539;51.064;6.346;2023-03-01T06:46:45;-0.40;1.00
5218;DHT22;26539;51.064;6.346;2023-03-01T06:49:14;-0.30;1.00
5218;DHT22;26539;51.064;6.346;2023-03-01T06:51:53;-0.20;1.00
5218;DHT22;26539;51.064;6.346;2023-03-01T06:54:27;-0.10;1.00
5218;DHT22;26539;51.064;6.346;2023-03-01T06:57:13;0.10;1.00
5218;DHT22;26539;51.064;6.346;2023-03-01T06:59:42;0.20;1.00
5218;DHT22;26539;51.064;6.346;2023-03-01T07:02:15;0.40;1.00
5218;DHT22;26539;51.064;6.346;2023-03-01T07:05:04;0.60;1.00
5218;DHT22;26539;51.064;6.346;2023-03-01T07:08:00;2.30;1.00
5218;DHT22;26539;51.064;6.346;2023-03-01T07:10:44;6.50;99.90
5218;DHT22;26539;51.064;6.346;2023-03-01T07:13:20;9.50;99.90
5218;DHT22;26539;51.064;6.346;2023-03-01T07:15:51;12.10;99.90
5218;DHT22;26539;51.064;6.346;2023-03-01T07:18:18;14.00;99.90
5218;DHT22;26539;51.064;6.346;2023-03-01T07:21:01;15.80;99.90
5218;DHT22;26539;51.064;6.346;2023-03-01T07:23:38;17.20;99.90
5218;DHT22;26539;51.064;6.346;2023-03-01T07:26:19;18.60;99.90
5218;DHT22;26539;51.064;6.346;2023-03-01T07:28:52;19.80;99.90
5218;DHT22;26539;51.064;6.346;2023-03-01T07:31:20;20.80;99.90
5218;DHT22;26539;51.064;6.346;2023-03-01T07:33:56;21.70;99.90
5218;DHT22;26539;51.064;6.346;2023-03-01T07:36:36;22.50;99.90
5218;DHT22;26539;51.064;6.346;2023-03-01T07:39:11;23.30;99.90
5218;DHT22;26539;51.064;6.346;2023-03-01T07:41:51;24.00;99.90
5218;DHT22;26539;51.064;6.346;2023-03-01T07:44:37;24.80;99.90
5218;DHT22;26539;51.064;6.346;2023-03-01T07:47:08;25.50;99.90
5218;DHT22;26539;51.064;6.346;2023-03-01T07:49:52;26.20;99.90
5218;DHT22;26539;51.064;6.346;2023-03-01T07:55:24;27.60;99.90
5218;DHT22;26539;51.064;6.346;2023-03-01T07:57:51;28.20;99.90
5218;DHT22;26539;51.064;6.346;2023-03-01T08:00:25;28.60;99.90
5218;DHT22;26539;51.064;6.346;2023-03-01T08:03:17;28.70;99.90
5218;DHT22;26539;51.064;6.346;2023-03-01T08:06:04;28.90;99.90
5218;DHT22;26539;51.064;6.346;2023-03-01T08:08:43;29.20;99.90
5218;DHT22;26539;51.064;6.346;2023-03-01T08:11:26;29.60;99.90
5218;DHT22;26539;51.064;6.346;2023-03-01T08:17:23;29.90;99.90
5218;DHT22;26539;51.064;6.346;2023-03-01T08:20:18;30.30;99.90
5218;DHT22;26539;51.064;6.346;2023-03-01T08:22:46;30.50;99.90
5218;DHT22;26539;51.064;6.346;2023-03-01T08:25:19;30.80;99.90
5218;DHT22;26539;51.064;6.346;2023-03-01T08:27:47;31.20;99.90
5218;DHT22;26539;51.064;6.346;2023-03-01T08:30:13;31.20;99.90
5218;DHT22;26539;51.064;6.346;2023-03-01T08:35:43;31.80;99.90
5218;DHT22;26539;51.064;6.346;2023-03-01T08:38:29;32.10;99.90
5218;DHT22;26539;51.064;6.346;2023-03-01T08:40:55;31.80;99.90
5218;DHT22;26539;51.064;6.346;2023-03-01T08:43:52;31.50;99.90
5218;DHT22;26539;51.064;6.346;2023-03-01T08:46:29;31.10;99.90
5218;DHT22;26539;51.064;6.346;2023-03-01T08:49:19;30.60;99.90
5218;DHT22;26539;51.064;6.346;2023-03-01T08:55:27;30.30;99.90
5218;DHT22;26539;51.064;6.346;2023-03-01T08:57:55;30.40;99.90
5218;DHT22;26539;51.064;6.346;2023-03-01T09:00:23;29.90;99.90
5218;DHT22;26539;51.064;6.346;2023-03-01T09:02:51;29.70;99.90
5218;DHT22;26539;51.064;6.346;2023-03-01T09:05:46;29.40;99.90
5218;DHT22;26539;51.064;6.346;2023-03-01T09:08:14;29.10;98.80
5218;DHT22;26539;51.064;6.346;2023-03-01T09:10:42;28.80;98.20
5218;DHT22;26539;51.064;6.346;2023-03-01T09:13:58;29.00;98.10
5218;DHT22;26539;51.064;6.346;2023-03-01T09:16:39;29.00;97.50
5218;DHT22;26539;51.064;6.346;2023-03-01T09:19:22;28.90;96.80
5218;DHT22;26539;51.064;6.346;2023-03-01T09:22:32;29.00;96.40
5218;DHT22;26539;51.064;6.346;2023-03-01T09:25:29;29.10;95.90
5218;DHT22;26539;51.064;6.346;2023-03-01T09:31:11;29.10;95.00
5218;DHT22;26539;51.064;6.346;2023-03-01T09:36:51;27.60;90.00
5218;DHT22;26539;51.064;6.346;2023-03-01T09:39:45;26.90;85.00
5218;DHT22;26539;51.064;6.346;2023-03-01T09:42:14;26.50;82.80
5218;DHT22;26539;51.064;6.346;2023-03-01T09:45:15;26.30;81.90
5218;DHT22;26539;51.064;6.346;2023-03-01T09:47:44;26.40;82.60
5218;DHT22;26539;51.064;6.346;2023-03-01T09:50:23;25.80;78.70
5218;DHT22;26539;51.064;6.346;2023-03-01T09:53:09;25.60;78.20
5218;DHT22;26539;51.064;6.346;2023-03-01T09:56:19;25.00;74.30
5218;DHT22;26539;51.064;6.346;2023-03-01T10:04:54;24.90;73.00
5218;DHT22;26539;51.064;6.346;2023-03-01T10:08:13;25.40;75.00
5218;DHT22;26539;51.064;6.346;2023-03-01T10:23:26;25.30;73.10
5218;DHT22;26539;51.064;6.346;2023-03-01T10:31:13;25.60;75.00
5218;DHT22;26539;51.064;6.346;2023-03-01T10:33:41;25.70;76.30
5218;DHT22;26539;51.064;6.346;2023-03-01T10:36:09;25.40;73.60
5218;DHT22;26539;51.064;6.346;2023-03-01T10:39:22;25.40;73.00
5218;DHT22;26539;51.064;6.346;2023-03-01T10:42:00;25.40;72.80
5218;DHT22;26539;51.064;6.346;2023-03-01T10:45:00;25.50;73.50
5218;DHT22;26539;51.064;6.346;2023-03-01T10:48:14;25.30;72.00
5218;DHT22;26539;51.064;6.346;2023-03-01T10:50:45;25.40;73.50
5218;DHT22;26539;51.064;6.346;2023-03-01T10:53:27;25.70;74.70
5218;DHT22;26539;51.064;6.346;2023-03-01T10:56:03;26.00;76.00
5218;DHT22;26539;51.064;6.346;2023-03-01T10:58:30;26.00;75.10
5218;DHT22;26539;51.064;6.346;2023-03-01T11:00:59;26.10;75.50
5218;DHT22;26539;51.064;6.346;2023-03-01T11:03:37;25.90;72.60
5218;DHT22;26539;51.064;6.346;2023-03-01T11:09:22;25.10;68.80
5218;DHT22;26539;51.064;6.346;2023-03-01T11:12:05;24.40;63.20
5218;DHT22;26539;51.064;6.346;2023-03-01T11:14:45;24.30;61.70
5218;DHT22;26539;51.064;6.346;2023-03-01T11:17:33;24.50;62.50
5218;DHT22;26539;51.064;6.346;2023-03-01T11:22:55;24.20;62.00
5218;DHT22;26539;51.064;6.346;2023-03-01T11:25:40;23.90;58.40
5218;DHT22;26539;51.064;6.346;2023-03-01T11:28:14;23.90;59.40
5218;DHT22;26539;51.064;6.346;2023-03-01T11:31:00;24.10;59.80
5218;DHT22;26539;51.064;6.346;2023-03-01T11:38:39;23.80;58.20
5218;DHT22;26539;51.064;6.346;2023-03-01T11:41:23;23.70;57.60
5218;DHT22;26539;51.064;6.346;2023-03-01T12:00:17;23.50;57.30
5218;DHT22;26539;51.064;6.346;2023-03-01T12:19:36;25.30;65.60
5218;DHT22;26539;51.064;6.346;2023-03-01T12:25:19;25.20;64.60
5218;DHT22;26539;51.064;6.346;2023-03-01T12:33:25;24.70;61.70
5218;DHT22;26539;51.064;6.346;2023-03-01T12:49:57;23.20;52.70
5218;DHT22;26539;51.064;6.346;2023-03-01T12:52:40;23.60;54.40
5218;DHT22;26539;51.064;6.346;2023-03-01T12:58:04;23.90;56.00
5218;DHT22;26539;51.064;6.346;2023-03-01T13:08:39;23.10;52.10
5218;DHT22;26539;51.064;6.346;2023-03-01T13:11:19;23.10;52.50
5218;DHT22;26539;51.064;6.346;2023-03-01T13:13:45;23.20;53.10
5218;DHT22;26539;51.064;6.346;2023-03-01T13:19:17;22.80;51.50
5218;DHT22;26539;51.064;6.346;2023-03-01T13:21:45;22.80;51.80
5218;DHT22;26539;51.064;6.346;2023-03-01T13:24:41;22.60;51.10
5218;DHT22;26539;51.064;6.346;2023-03-01T13:29:47;22.70;52.00
5218;DHT22;26539;51.064;6.346;2023-03-01T13:32:20;22.60;51.40
5218;DHT22;26539;51.064;6.346;2023-03-01T13:34:47;22.30;50.60
5218;DHT22;26539;51.064;6.346;2023-03-01T13:37:27;22.10;49.50
5218;DHT22;26539;51.064;6.346;2023-03-01T13:39:56;22.00;49.60
5218;DHT22;26539;51.064;6.346;2023-03-01T13:44:54;21.80;48.90
5218;DHT22;26539;51.064;6.346;2023-03-01T13:47:21;21.60;49.20
5218;DHT22;26539;51.064;6.346;2023-03-01T13:49:58;21.30;47.50
5218;DHT22;26539;51.064;6.346;2023-03-01T13:52:43;20.90;45.70
5218;DHT22;26539;51.064;6.346;2023-03-01T13:55:19;20.50;44.40
5218;DHT22;26539;51.064;6.346;2023-03-01T13:57:48;20.40;44.30
5218;DHT22;26539;51.064;6.346;2023-03-01T14:00:29;20.20;43.00
5218;DHT22;26539;51.064;6.346;2023-03-01T14:03:10;20.00;43.00
5218;DHT22;26539;51.064;6.346;2023-03-01T14:05:37;19.90;42.10
5218;DHT22;26539;51.064;6.346;2023-03-01T14:08:04;19.70;41.50
5218;DHT22;26539;51.064;6.346;2023-03-01T14:13:32;19.20;40.50
5218;DHT22;26539;51.064;6.346;2023-03-01T14:16:08;18.90;39.60
5218;DHT22;26539;51.064;6.346;2023-03-01T14:21:14;18.60;38.50
5218;DHT22;26539;51.064;6.346;2023-03-01T14:23:41;18.40;37.90
5218;DHT22;26539;51.064;6.346;2023-03-01T14:26:08;18.20;37.10
5218;DHT22;26539;51.064;6.346;2023-03-01T14:28:36;17.90;36.20
5218;DHT22;26539;51.064;6.346;2023-03-01T14:31:31;17.70;35.40
5218;DHT22;26539;51.064;6.346;2023-03-01T14:33:58;17.70;37.10
5218;DHT22;26539;51.064;6.346;2023-03-01T14:36:32;17.70;36.60
5218;DHT22;26539;51.064;6.346;2023-03-01T14:38:57;17.50;35.80
5218;DHT22;26539;51.064;6.346;2023-03-01T14:41:33;17.50;36.20
5218;DHT22;26539;51.064;6.346;2023-03-01T14:44:03;17.40;36.80
5218;DHT22;26539;51.064;6.346;2023-03-01T14:46:40;17.50;36.90
5218;DHT22;26539;51.064;6.346;2023-03-01T14:49:19;17.50;37.60
5218;DHT22;26539;51.064;6.346;2023-03-01T14:52:02;17.30;43.90
5218;DHT22;26539;51.064;6.346;2023-03-01T14:54:50;17.10;36.00
5218;DHT22;26539;51.064;6.346;2023-03-01T14:57:23;17.00;36.60
5218;DHT22;26539;51.064;6.346;2023-03-01T14:59:50;17.00;36.50
5218;DHT22;26539;51.064;6.346;2023-03-01T15:02:19;16.90;37.30
5218;DHT22;26539;51.064;6.346;2023-03-01T15:04:49;17.00;37.90
5218;DHT22;26539;51.064;6.346;2023-03-01T15:07:15;17.10;39.40
5218;DHT22;26539;51.064;6.346;2023-03-01T15:09:47;16.90;39.10
5218;DHT22;26539;51.064;6.346;2023-03-01T15:14:54;16.70;38.30
5218;DHT22;26539;51.064;6.346;2023-03-01T15:19:54;16.40;38.40
5218;DHT22;26539;51.064;6.346;2023-03-01T15:22:20;16.30;37.90
5218;DHT22;26539;51.064;6.346;2023-03-01T15:24:47;16.40;38.00
5218;DHT22;26539;51.064;6.346;2023-03-01T15:27:19;16.30;38.80
5218;DHT22;26539;51.064;6.346;2023-03-01T15:30:02;16.20;37.90
5218;DHT22;26539;51.064;6.346;2023-03-01T15:32:33;16.10;39.20
5218;DHT22;26539;51.064;6.346;2023-03-01T15:35:00;16.00;38.60
5218;DHT22;26539;51.064;6.346;2023-03-01T15:37:45;16.00;39.00
5218;DHT22;26539;51.064;6.346;2023-03-01T15:40:26;15.90;38.90
5218;DHT22;26539;51.064;6.346;2023-03-01T15:43:01;15.40;37.20
5218;DHT22;26539;51.064;6.346;2023-03-01T15:45:28;14.90;34.80
5218;DHT22;26539;51.064;6.346;2023-03-01T15:48:14;14.50;33.70
5218;DHT22;26539;51.064;6.346;2023-03-01T15:50:42;14.10;31.50
5218;DHT22;26539;51.064;6.346;2023-03-01T15:53:13;13.70;30.00
5218;DHT22;26539;51.064;6.346;2023-03-01T15:55:40;13.40;29.90
5218;DHT22;26539;51.064;6.346;2023-03-01T15:58:06;13.20;29.80
5218;DHT22;26539;51.064;6.346;2023-03-01T16:00:35;12.90;29.20
5218;DHT22;26539;51.064;6.346;2023-03-01T16:03:00;12.70;28.50
5218;DHT22;26539;51.064;6.346;2023-03-01T16:05:29;12.40;28.00
5218;DHT22;26539;51.064;6.346;2023-03-01T16:07:58;12.30;28.50
5218;DHT22;26539;51.064;6.346;2023-03-01T16:10:26;12.30;28.80
5218;DHT22;26539;51.064;6.346;2023-03-01T16:12:52;12.10;29.60
5218;DHT22;26539;51.064;6.346;2023-03-01T16:17:49;11.80;29.00
5218;DHT22;26539;51.064;6.346;2023-03-01T16:20:15;11.70;28.80
5218;DHT22;26539;51.064;6.346;2023-03-01T16:22:44;11.60;29.20
5218;DHT22;26539;51.064;6.346;2023-03-01T16:25:15;11.40;29.20
5218;DHT22;26539;51.064;6.346;2023-03-01T16:27:46;11.20;29.80
5218;DHT22;26539;51.064;6.346;2023-03-01T16:30:13;11.10;29.20
5218;DHT22;26539;51.064;6.346;2023-03-01T16:32:40;11.00;29.30
5218;DHT22;26539;51.064;6.346;2023-03-01T16:35:10;10.80;28.90
5218;DHT22;26539;51.064;6.346;2023-03-01T16:37:37;10.70;29.50
5218;DHT22;26539;51.064;6.346;2023-03-01T16:40:04;10.70;29.30
5218;DHT22;26539;51.064;6.346;2023-03-01T16:42:34;10.60;29.60
5218;DHT22;26539;51.064;6.346;2023-03-01T16:45:00;10.60;30.00
5218;DHT22;26539;51.064;6.346;2023-03-01T16:47:30;10.50;29.80
5218;DHT22;26539;51.064;6.346;2023-03-01T16:50:06;10.30;29.80
5218;DHT22;26539;51.064;6.346;2023-03-01T16:52:37;10.20;29.70
5218;DHT22;26539;51.064;6.346;2023-03-01T16:55:12;10.10;29.90
5218;DHT22;26539;51.064;6.346;2023-03-01T17:00:55;9.80;30.80
5218;DHT22;26539;51.064;6.346;2023-03-01T17:03:24;9.70;30.70
5218;DHT22;26539;51.064;6.346;2023-03-01T17:05:53;9.50;30.90
5218;DHT22;26539;51.064;6.346;2023-03-01T17:08:21;9.50;30.70
5218;DHT22;26539;51.064;6.346;2023-03-01T17:10:47;9.40;31.80
5218;DHT22;26539;51.064;6.346;2023-03-01T17:13:13;9.30;31.80
5218;DHT22;26539;51.064;6.346;2023-03-01T17:15:41;9.20;31.30
5218;DHT22;26539;51.064;6.346;2023-03-01T17:18:08;9.10;31.90
5218;DHT22;26539;51.064;6.346;2023-03-01T17:20:34;9.00;32.00
5218;DHT22;26539;51.064;6.346;2023-03-01T17:23:00;9.00;32.20
5218;DHT22;26539;51.064;6.346;2023-03-01T17:25:36;8.80;32.20
5218;DHT22;26539;51.064;6.346;2023-03-01T17:28:07;8.70;32.80
5218;DHT22;26539;51.064;6.346;2023-03-01T17:30:32;8.70;32.90
5218;DHT22;26539;51.064;6.346;2023-03-01T17:33:00;8.60;32.80
5218;DHT22;26539;51.064;6.346;2023-03-01T17:35:26;8.50;33.10
5218;DHT22;26539;51.064;6.346;2023-03-01T17:37:51;8.50;33.90
5218;DHT22;26539;51.064;6.346;2023-03-01T17:40:17;8.40;34.10
5218;DHT22;26539;51.064;6.346;2023-03-01T17:42:42;8.40;34.60
5218;DHT22;26539;51.064;6.346;2023-03-01T17:45:10;8.40;34.70
5218;DHT22;26539;51.064;6.346;2023-03-01T17:47:36;8.30;36.30
5218;DHT22;26539;51.064;6.346;2023-03-01T17:50:03;8.20;36.30
5218;DHT22;26539;51.064;6.346;2023-03-01T17:52:30;8.10;35.50
5218;DHT22;26539;51.064;6.346;2023-03-01T17:54:55;8.00;35.60
5218;DHT22;26539;51.064;6.346;2023-03-01T17:57:23;7.90;35.50
5218;DHT22;26539;51.064;6.346;2023-03-01T17:59:57;7.70;35.40
5218;DHT22;26539;51.064;6.346;2023-03-01T18:02:43;7.60;35.40
5218;DHT22;26539;51.064;6.346;2023-03-01T18:05:14;7.60;35.90
5218;DHT22;26539;51.064;6.346;2023-03-01T18:07:45;7.40;36.10
5218;DHT22;26539;51.064;6.346;2023-03-01T18:10:39;7.30;36.30
5218;DHT22;26539;51.064;6.346;2023-03-01T18:13:10;7.10;36.40
5218;DHT22;26539;51.064;6.346;2023-03-01T18:15:46;7.00;36.50
5218;DHT22;26539;51.064;6.346;2023-03-01T18:19:09;7.00;37.20
5218;DHT22;26539;51.064;6.346;2023-03-01T18:21:54;6.90;37.40
5218;DHT22;26539;51.064;6.346;2023-03-01T18:24:20;6.90;37.40
5218;DHT22;26539;51.064;6.346;2023-03-01T18:26:53;6.90;37.80
5218;DHT22;26539;51.064;6.346;2023-03-01T18:32:30;6.80;38.80
5218;DHT22;26539;51.064;6.346;2023-03-01T18:35:19;6.80;39.50
5218;DHT22;26539;51.064;6.346;2023-03-01T18:38:18;6.80;40.10
5218;DHT22;26539;51.064;6.346;2023-03-01T18:40:43;6.70;40.10
5218;DHT22;26539;51.064;6.346;2023-03-01T18:43:49;6.70;40.40
5218;DHT22;26539;51.064;6.346;2023-03-01T18:46:35;6.60;41.30
5218;DHT22;26539;51.064;6.346;2023-03-01T18:52:03;6.60;41.50
5218;DHT22;26539;51.064;6.346;2023-03-01T18:55:00;6.50;42.40
5218;DHT22;26539;51.064;6.346;2023-03-01T19:07:03;6.40;43.10
5218;DHT22;26539;51.064;6.346;2023-03-01T19:13:40;6.30;44.10
5218;DHT22;26539;51.064;6.346;2023-03-01T19:16:21;6.30;44.20
5218;DHT22;26539;51.064;6.346;2023-03-01T19:22:09;6.20;44.80
5218;DHT22;26539;51.064;6.346;2023-03-01T19:24:42;6.20;45.30
5218;DHT22;26539;51.064;6.346;2023-03-01T19:27:17;6.10;45.30
5218;DHT22;26539;51.064;6.346;2023-03-01T19:30:06;6.10;45.70
5218;DHT22;26539;51.064;6.346;2023-03-01T19:33:33;6.00;46.20
5218;DHT22;26539;51.064;6.346;2023-03-01T19:36:00;5.90;46.50
5218;DHT22;26539;51.064;6.346;2023-03-01T19:38:44;5.90;47.30
5218;DHT22;26539;51.064;6.346;2023-03-01T19:41:30;5.80;46.80
5218;DHT22;26539;51.064;6.346;2023-03-01T19:47:33;5.80;48.10
5218;DHT22;26539;51.064;6.346;2023-03-01T19:50:11;5.70;48.40
5218;DHT22;26539;51.064;6.346;2023-03-01T19:52:45;5.60;48.80
5218;DHT22;26539;51.064;6.346;2023-03-01T19:55:16;5.60;49.60
5218;DHT22;26539;51.064;6.346;2023-03-01T19:57:44;5.60;49.70
5218;DHT22;26539;51.064;6.346;2023-03-01T20:00:15;5.50;50.00
5218;DHT22;26539;51.064;6.346;2023-03-01T20:02:41;5.50;50.60
5218;DHT22;26539;51.064;6.346;2023-03-01T20:08:31;5.50;51.60
5218;DHT22;26539;51.064;6.346;2023-03-01T20:11:26;5.40;51.70
5218;DHT22;26539;51.064;6.346;2023-03-01T20:14:02;5.40;52.40
5218;DHT22;26539;51.064;6.346;2023-03-01T20:23:00;5.20;53.50
5218;DHT22;26539;51.064;6.346;2023-03-01T20:29:05;5.20;54.10
5218;DHT22;26539;51.064;6.346;2023-03-01T20:31:36;5.10;54.60
5218;DHT22;26539;51.064;6.346;2023-03-01T20:34:33;5.10;54.90
5218;DHT22;26539;51.064;6.346;2023-03-01T20:37:10;5.00;55.00
5218;DHT22;26539;51.064;6.346;2023-03-01T20:39:58;5.00;55.60
5218;DHT22;26539;51.064;6.346;2023-03-01T20:49:44;4.60;55.70
5218;DHT22;26539;51.064;6.346;2023-03-01T20:52:24;4.50;56.40
5218;DHT22;26539;51.064;6.346;2023-03-01T20:54:57;4.50;56.20
5218;DHT22;26539;51.064;6.346;2023-03-01T21:00:21;4.40;57.00
5218;DHT22;26539;51.064;6.346;2023-03-01T21:09:55;4.30;58.80
5218;DHT22;26539;51.064;6.346;2023-03-01T21:12:20;4.30;59.50
5218;DHT22;26539;51.064;6.346;2023-03-01T21:14:53;4.30;60.40
5218;DHT22;26539;51.064;6.346;2023-03-01T21:17:29;4.30;61.20
5218;DHT22;26539;51.064;6.346;2023-03-01T21:20:00;4.40;63.20
5218;DHT22;26539;51.064;6.346;2023-03-01T21:22:51;4.40;62.70
5218;DHT22;26539;51.064;6.346;2023-03-01T21:25:27;4.40;64.30
5218;DHT22;26539;51.064;6.346;2023-03-01T21:27:59;4.40;64.40
5218;DHT22;26539;51.064;6.346;2023-03-01T21:30:35;4.40;85.00
5218;DHT22;26539;51.064;6.346;2023-03-01T21:33:06;4.20;67.70
5218;DHT22;26539;51.064;6.346;2023-03-01T21:35:51;4.20;67.30
5218;DHT22;26539;51.064;6.346;2023-03-01T21:38:20;4.10;68.10
5218;DHT22;26539;51.064;6.346;2023-03-01T21:40:46;4.10;69.70
5218;DHT22;26539;51.064;6.346;2023-03-01T21:43:11;4.10;69.40
5218;DHT22;26539;51.064;6.346;2023-03-01T21:45:37;4.00;70.10
5218;DHT22;26539;51.064;6.346;2023-03-01T21:48:05;4.00;72.10